Historique des mesures à Cassis (13260), France
Quotidien Résumé Aout 15, 2017 Unités:  Métrique    US   Métrique/US
« Précédent (Jour)
Suivant (Jour) »
Quotidien Hebdomadaire Mensuel Annuel Période au choix
  Maximum: Minimum: Moyenne:
Température: TemperatureC °C 19.1 °C 23.3 °C
Point de rosée: DewpointC °C 10.6 °C 13.3 °C
Humidité: Humidity % 40 % 51 %
Vitesse du vent: 0 km/h 0 km/h 2.9 km/h
Rafales: 0 km/h - -
Vent:- - SE
Pression: PressurehPa hPa 1015.1 hPa -
Précipitations: 0.0 mm    
Historical Graphs
 
 
Mesures pour : Aout 15, 2017
Heure Temperature Point de rosée Pression Vent Vitesse du vent Rafales Humidité Pluie (par heure) Conditions
TemperatureC °C DewpointC °C PressurehPa hPa Calm     Humidity % HourlyPrecipMM mm SoftwareType W/m2
00:11 20.3 °C 15.9 °C 1016.1 hPa Calm   2.9 km/h 76 % 0.0 mm open2300-1.11 W/m2
01:11 20.2 °C 14.8 °C 1015.8 hPa North 3.4 km/h 10.3 km/h 71 % 0.0 mm open2300-1.11 W/m2
02:11 20.2 °C 14.1 °C 1015.8 hPa NNW 5.1 km/h 8.9 km/h 68 % 0.0 mm open2300-1.11 W/m2
03:11 20.5 °C 13.4 °C 1015.5 hPa Calm     64 % 0.0 mm open2300-1.11 W/m2
04:11 20.3 °C 13.2 °C 1015.8 hPa Calm     64 % 0.0 mm open2300-1.11 W/m2
06:11 19.2 °C 11.5 °C 1015.8 hPa North 1.8 km/h 2.3 km/h 61 % 0.0 mm open2300-1.11 W/m2
07:11 19.1 °C 11.4 °C 1016.8 hPa Calm     61 % 0.0 mm open2300-1.11 W/m2
08:11 24.6 °C 14.4 °C 1017.2 hPa Calm   2.3 km/h 53 % 0.0 mm open2300-1.11 W/m2
09:11 22.8 °C 14.3 °C 1016.8 hPa East 3.4 km/h 3.4 km/h 59 % 0.0 mm open2300-1.11 W/m2
10:11 23.6 °C 14.3 °C 1016.8 hPa SSW 9.3 km/h 9.3 km/h 56 % 0.0 mm open2300-1.11 W/m2
11:11 26.9 °C 16.2 °C 1016.8 hPa South 5.6 km/h 6.4 km/h 52 % 0.0 mm open2300-1.11 W/m2
12:11 28.9 °C 15.7 °C 1016.1 hPa SSE 2.3 km/h 8 km/h 45 % 0.0 mm open2300-1.11 W/m2
13:11 28.9 °C 15.1 °C 1015.8 hPa SSE 6.9 km/h 6.9 km/h 43 % 0.0 mm open2300-1.11 W/m2
14:11 29.0 °C 15.2 °C 1016.1 hPa East 2.9 km/h 5.1 km/h 43 % 0.0 mm open2300-1.11 W/m2
15:11 28.8 °C 13.9 °C 1016.1 hPa Calm   6.4 km/h 40 % 0.0 mm open2300-1.11 W/m2
16:11 28.6 °C 13.7 °C 1015.5 hPa SSE 7.6 km/h 10.9 km/h 40 % 0.0 mm open2300-1.11 W/m2
17:11 27.9 °C 15.8 °C 1015.8 hPa ESE 4.2 km/h 15 km/h 48 % 0.0 mm open2300-1.11 W/m2
18:11 27.6 °C 14.2 °C 1016.1 hPa SSW 2.3 km/h 12.7 km/h 44 % 0.0 mm open2300-1.11 W/m2
19:11 26.4 °C 14.8 °C 1015.8 hPa SE 7.6 km/h 7.6 km/h 49 % 0.0 mm open2300-1.11 W/m2
20:11 24.9 °C 14.7 °C 1015.5 hPa NNE 3.4 km/h 6.4 km/h 53 % 0.0 mm open2300-1.11 W/m2
21:11 24.1 °C 11.7 °C 1015.1 hPa NNE 2.9 km/h 4.2 km/h 46 % 0.0 mm open2300-1.11 W/m2
22:11 23.8 °C 11.1 °C 1016.1 hPa Calm   1.8 km/h 45 % 0.0 mm open2300-1.11 W/m2
23:11 23.3 °C 10.6 °C 1016.1 hPa Calm     45 % 0.0 mm open2300-1.11 W/m2
Observations météo à CASSIS
WU-History script by Weather Underground - 1 mb